Time;durP1;ratioP1;P1;durP2;ratioP2;P2;SDS_P1;SDS_P2;PMS_P1;PMS_P2;Temp;Humidity;BMP_temperature;BMP_pressure;BME280_temperature;BME280_humidity;BME280_pressure;Samples;Min_cycle;Max_cycle;Signal;HPM_P1;HPM_P2
2022/09/03 00:00:56;;;;;;;1.50;1.10;;;20.70;58.50;;;;;;5051918;28;20433;-73
2022/09/03 00:03:24;;;;;;;1.20;1.08;;;20.70;58.60;;;;;;5051082;28;20063;-72
2022/09/03 00:05:54;;;;;;;1.20;1.00;;;20.70;58.50;;;;;;5052260;28;20128;-72
2022/09/03 00:08:25;;;;;;;1.10;1.00;;;20.70;58.50;;;;;;5050970;28;20060;-73
2022/09/03 00:10:53;;;;;;;1.75;1.13;;;20.70;59.10;;;;;;5050745;28;20137;-73
2022/09/03 00:13:22;;;;;;;1.30;1.00;;;20.70;58.50;;;;;;5050735;28;20063;-73
2022/09/03 00:15:49;;;;;;;1.20;1.10;;;20.70;58.40;;;;;;5050627;28;20124;-73
2022/09/03 00:18:17;;;;;;;1.52;1.08;;;20.30;60.30;;;;;;5050942;28;20140;-72
2022/09/03 00:20:46;;;;;;;1.17;1.00;;;20.70;58.40;;;;;;5050496;28;20060;-73
2022/09/03 00:23:17;;;;;;;1.10;1.00;;;20.70;58.40;;;;;;5050708;28;20057;-71
2022/09/03 00:25:47;;;;;;;2.28;0.90;;;20.70;58.40;;;;;;5050878;28;20059;-73
2022/09/03 00:28:15;;;;;;;1.00;0.90;;;20.70;58.40;;;;;;5050352;28;20534;-72
2022/09/03 00:30:43;;;;;;;1.13;1.02;;;20.70;58.40;;;;;;5050301;28;20131;-71
2022/09/03 00:33:12;;;;;;;1.10;1.00;;;21.20;60.70;;;;;;5050842;28;20060;-71
2022/09/03 00:35:42;;;;;;;1.10;1.00;;;20.70;58.40;;;;;;5050370;28;20072;-73
2022/09/03 00:38:09;;;;;;;1.02;0.93;;;20.70;58.40;;;;;;5050425;28;20577;-73
2022/09/03 00:40:43;;;;;;;1.38;1.10;;;20.60;58.30;;;;;;5050442;28;20432;-73
2022/09/03 00:43:16;;;;;;;1.20;1.05;;;20.60;58.30;;;;;;5050893;28;20124;-73
2022/09/03 00:45:47;;;;;;;1.30;1.00;;;20.60;58.40;;;;;;5050593;28;20088;-73
2022/09/03 00:48:16;;;;;;;1.10;1.00;;;20.60;58.30;;;;;;5050463;28;20139;-73
2022/09/03 00:50:49;;;;;;;1.02;0.93;;;20.60;58.30;;;;;;5050101;28;20155;-73
2022/09/03 00:53:22;;;;;;;2.10;1.05;;;20.60;58.30;;;;;;5051643;28;20053;-73
2022/09/03 00:55:57;;;;;;;1.10;1.00;;;20.60;58.30;;;;;;5050068;28;20490;-73
2022/09/03 00:58:44;;;;;;;1.88;1.13;;;20.60;58.30;;;;;;5050632;28;20114;-73
2022/09/03 01:01:17;;;;;;;1.00;0.95;;;20.60;58.20;;;;;;5050319;28;20132;-73
2022/09/03 01:03:50;;;;;;;1.20;1.02;;;20.40;60.10;;;;;;5050056;28;20053;-73
2022/09/03 01:06:18;;;;;;;1.40;1.10;;;20.50;58.30;;;;;;5050126;28;20049;-73
2022/09/03 01:08:54;;;;;;;0.93;0.90;;;20.50;58.30;;;;;;5050439;28;20057;-73
2022/09/03 01:11:25;;;;;;;1.40;1.05;;;20.50;58.20;;;;;;5050981;28;20048;-72
2022/09/03 01:13:57;;;;;;;1.00;0.90;;;20.40;60.40;;;;;;5050020;28;20061;-73
2022/09/03 01:16:27;;;;;;;1.27;1.10;;;20.50;58.20;;;;;;5049854;28;20092;-73
2022/09/03 01:18:59;;;;;;;2.45;0.90;;;20.50;58.20;;;;;;5050391;28;20063;-73
2022/09/03 01:21:51;;;;;;;1.15;1.05;;;20.50;58.20;;;;;;5051123;28;20049;-73
2022/09/03 01:24:33;;;;;;;1.60;1.10;;;20.50;58.20;;;;;;5044980;28;20064;-73
2022/09/03 01:27:09;;;;;;;1.60;1.15;;;20.40;58.20;;;;;;5051336;28;20405;-73
2022/09/03 01:29:39;;;;;;;1.08;0.90;;;20.40;58.30;;;;;;5050255;28;20087;-73
2022/09/03 01:32:08;;;;;;;1.10;1.00;;;20.40;58.30;;;;;;5050043;28;20063;-71
2022/09/03 01:34:43;;;;;;;1.58;1.13;;;20.40;58.30;;;;;;5051003;28;20048;-71
2022/09/03 01:37:14;;;;;;;1.20;1.10;;;20.40;58.30;;;;;;5049928;28;20080;-71
2022/09/03 01:39:45;;;;;;;1.40;1.10;;;20.30;58.30;;;;;;5050179;28;20053;-71
2022/09/03 01:42:17;;;;;;;0.90;0.90;;;20.40;58.40;;;;;;5049951;28;20063;-72
2022/09/03 01:44:57;;;;;;;1.38;1.00;;;20.40;58.40;;;;;;5050024;28;20049;-70
2022/09/03 01:47:31;;;;;;;1.35;1.15;;;19.20;59.80;;;;;;5049719;28;20172;-71
2022/09/03 01:50:03;;;;;;;1.00;0.90;;;20.30;58.40;;;;;;5049909;28;20049;-71
2022/09/03 01:52:34;;;;;;;1.15;1.00;;;20.30;58.40;;;;;;5049680;28;20530;-71
2022/09/03 01:55:06;;;;;;;1.50;0.95;;;20.30;58.40;;;;;;5050968;28;20056;-71
2022/09/03 01:57:49;;;;;;;1.85;1.10;;;20.30;58.40;;;;;;5054449;28;20506;-71
2022/09/03 02:00:19;;;;;;;2.00;1.00;;;20.30;58.30;;;;;;5053396;28;20049;-71
2022/09/03 02:02:47;;;;;;;1.48;0.85;;;20.30;58.40;;;;;;5054348;28;20044;-71
2022/09/03 02:05:15;;;;;;;1.33;1.00;;;20.30;61.20;;;;;;5054517;28;20067;-71
2022/09/03 02:07:43;;;;;;;1.42;1.33;;;20.30;58.40;;;;;;5053066;28;20065;-71
2022/09/03 02:10:12;;;;;;;1.13;1.02;;;20.30;58.40;;;;;;5053104;28;20079;-71
2022/09/03 02:12:41;;;;;;;1.27;1.00;;;20.30;58.30;;;;;;5053005;28;20067;-71
2022/09/03 02:15:11;;;;;;;1.27;1.02;;;20.40;61.20;;;;;;5054234;28;20110;-71
2022/09/03 02:17:40;;;;;;;2.00;0.90;;;20.30;58.40;;;;;;5053207;28;20052;-71
2022/09/03 02:20:10;;;;;;;1.45;1.00;;;20.70;61.00;;;;;;5052911;28;20053;-71
2022/09/03 02:22:37;;;;;;;1.00;0.95;;;20.30;58.30;;;;;;5052558;28;20482;-72
2022/09/03 02:25:05;;;;;;;1.05;0.95;;;20.30;58.30;;;;;;5052951;28;20056;-71
2022/09/03 02:27:31;;;;;;;0.90;0.90;;;20.30;58.30;;;;;;5053030;28;20139;-71
2022/09/03 02:29:58;;;;;;;1.20;1.10;;;20.30;58.30;;;;;;5052725;28;20516;-71
2022/09/03 02:32:25;;;;;;;1.38;1.10;;;20.30;58.30;;;;;;5052660;28;20536;-71
2022/09/03 02:34:53;;;;;;;1.30;1.02;;;20.30;58.30;;;;;;5052460;28;20052;-71
2022/09/03 02:37:20;;;;;;;1.15;1.05;;;20.30;58.30;;;;;;5052028;28;20093;-71
2022/09/03 02:39:47;;;;;;;2.13;1.10;;;20.20;58.30;;;;;;5052773;28;20143;-71
2022/09/03 02:42:14;;;;;;;1.17;1.00;;;20.20;58.30;;;;;;5052620;28;20080;-72
2022/09/03 02:44:43;;;;;;;0.95;0.90;;;20.20;58.30;;;;;;5052428;28;20103;-71
2022/09/03 02:47:10;;;;;;;0.95;0.82;;;20.20;58.30;;;;;;5052613;28;20574;-71
2022/09/03 02:49:37;;;;;;;1.20;1.10;;;20.20;58.30;;;;;;5052305;28;20053;-71
2022/09/03 02:52:08;;;;;;;1.55;1.08;;;20.20;58.30;;;;;;5053278;28;20799;-71
2022/09/03 02:54:38;;;;;;;1.33;1.10;;;20.20;58.30;;;;;;5052232;28;20061;-71
2022/09/03 02:57:05;;;;;;;1.20;1.00;;;20.20;58.30;;;;;;5052491;28;20406;-71
2022/09/03 02:59:32;;;;;;;1.15;0.90;;;20.20;58.30;;;;;;5052363;28;20440;-72
2022/09/03 03:02:01;;;;;;;1.17;1.08;;;20.20;58.30;;;;;;5053179;28;20057;-71
2022/09/03 03:04:29;;;;;;;1.15;1.00;;;20.20;58.30;;;;;;5052231;28;20060;-71
2022/09/03 03:06:56;;;;;;;1.25;1.10;;;20.20;58.30;;;;;;5052292;28;20055;-70
2022/09/03 03:09:24;;;;;;;2.42;1.08;;;20.10;58.20;;;;;;5052225;28;20052;-71
2022/09/03 03:11:51;;;;;;;2.38;1.08;;;20.10;58.20;;;;;;5051964;28;20508;-72
2022/09/03 03:14:18;;;;;;;1.45;1.10;;;20.10;58.30;;;;;;5053065;28;20417;-71
2022/09/03 03:16:45;;;;;;;1.20;1.08;;;20.10;58.20;;;;;;5051653;28;20076;-71
2022/09/03 03:19:11;;;;;;;1.15;1.05;;;19.60;60.30;;;;;;5052034;28;20136;-71
2022/09/03 03:21:38;;;;;;;1.30;1.08;;;20.00;60.60;;;;;;5052668;28;20049;-71
2022/09/03 03:24:05;;;;;;;1.45;1.10;;;20.10;58.20;;;;;;5051661;28;20084;-71
2022/09/03 03:26:34;;;;;;;1.42;0.85;;;20.10;60.30;;;;;;5051390;28;20060;-71
2022/09/03 03:29:03;;;;;;;1.40;0.90;;;20.10;58.20;;;;;;5051830;28;20057;-72
2022/09/03 03:31:30;;;;;;;1.45;0.90;;;20.10;58.20;;;;;;5051554;28;20502;-71
2022/09/03 03:33:57;;;;;;;1.00;0.80;;;21.20;60.80;;;;;;5052635;28;20570;-71
2022/09/03 03:36:25;;;;;;;1.20;1.02;;;20.10;58.30;;;;;;5052564;28;20490;-71
2022/09/03 03:38:53;;;;;;;1.15;1.00;;;20.10;58.30;;;;;;5050988;28;20048;-71
2022/09/03 03:41:21;;;;;;;1.00;0.90;;;20.10;58.30;;;;;;5052174;28;20045;-71
2022/09/03 03:43:53;;;;;;;1.17;1.08;;;20.00;58.20;;;;;;5051308;28;20472;-71
2022/09/03 03:46:20;;;;;;;1.23;0.90;;;20.10;58.30;;;;;;5051273;28;20075;-71
2022/09/03 03:48:47;;;;;;;1.00;0.90;;;20.00;58.20;;;;;;5052649;28;20053;-72
2022/09/03 03:51:14;;;;;;;1.13;1.00;;;20.00;58.20;;;;;;5051021;28;20057;-70
2022/09/03 03:53:41;;;;;;;1.10;1.00;;;20.00;58.20;;;;;;5051232;28;20554;-70
2022/09/03 03:56:09;;;;;;;2.47;1.20;;;20.10;58.20;;;;;;5050948;28;20063;-71
2022/09/03 03:58:37;;;;;;;1.00;0.90;;;20.00;58.20;;;;;;5051291;28;20106;-71
2022/09/03 04:01:06;;;;;;;2.03;1.02;;;20.00;58.20;;;;;;5050779;28;20469;-70
2022/09/03 04:03:33;;;;;;;1.27;1.02;;;20.00;58.20;;;;;;5051159;28;20136;-71
2022/09/03 04:06:01;;;;;;;1.75;1.13;;;20.00;58.20;;;;;;5050875;28;20128;-70
2022/09/03 04:08:28;;;;;;;1.13;1.00;;;20.00;58.20;;;;;;5051972;28;20517;-72
2022/09/03 04:10:59;;;;;;;1.20;1.10;;;20.00;58.20;;;;;;5050895;28;20052;-73
2022/09/03 04:13:29;;;;;;;1.35;0.90;;;21.20;61.10;;;;;;5051127;28;20060;-73
2022/09/03 04:16:00;;;;;;;1.70;1.10;;;19.90;58.20;;;;;;5050916;28;20045;-73
2022/09/03 04:18:28;;;;;;;2.10;1.10;;;20.00;58.20;;;;;;5050712;28;20084;-73
2022/09/03 04:20:59;;;;;;;1.45;1.10;;;20.00;60.50;;;;;;5050429;28;20387;-73
2022/09/03 04:23:26;;;;;;;1.52;1.15;;;19.90;58.10;;;;;;5051138;28;20116;-73
2022/09/03 04:25:53;;;;;;;1.20;1.10;;;19.90;58.10;;;;;;5048708;28;20524;-73
2022/09/03 04:28:21;;;;;;;1.52;1.25;;;19.90;58.10;;;;;;5050816;28;20088;-73
2022/09/03 04:30:47;;;;;;;1.30;1.10;;;19.90;58.10;;;;;;5050369;28;20057;-73
2022/09/03 04:33:14;;;;;;;2.50;1.10;;;19.90;60.40;;;;;;5051535;28;20076;-73
2022/09/03 04:35:42;;;;;;;1.10;1.00;;;19.90;58.20;;;;;;5051402;28;20417;-72
2022/09/03 04:38:09;;;;;;;1.23;0.98;;;20.10;60.90;;;;;;5050861;28;20411;-73
2022/09/03 04:40:36;;;;;;;1.50;0.93;;;19.90;58.10;;;;;;5050220;28;20088;-73
2022/09/03 04:43:03;;;;;;;1.13;1.00;;;19.90;58.10;;;;;;5050801;28;20136;-72
2022/09/03 04:45:30;;;;;;;1.55;1.15;;;19.90;58.10;;;;;;5051775;28;20397;-73
2022/09/03 04:47:58;;;;;;;1.70;1.30;;;19.90;58.10;;;;;;5050685;28;20441;-73
2022/09/03 04:50:26;;;;;;;1.05;0.95;;;19.90;58.10;;;;;;5050614;28;20052;-73
2022/09/03 04:52:57;;;;;;;0.93;0.90;;;19.90;58.10;;;;;;5047693;28;20057;-71
2022/09/03 04:55:23;;;;;;;1.33;1.08;;;19.90;58.10;;;;;;5049960;28;20515;-73
2022/09/03 04:57:52;;;;;;;1.00;0.90;;;19.90;58.10;;;;;;5050468;28;20132;-73
2022/09/03 05:00:19;;;;;;;2.08;1.08;;;19.90;58.10;;;;;;5051515;28;20049;-72
2022/09/03 05:02:48;;;;;;;1.33;1.00;;;19.80;58.10;;;;;;5050051;28;20065;-73
2022/09/03 05:05:15;;;;;;;1.45;1.20;;;19.90;58.10;;;;;;5050338;28;20096;-73
2022/09/03 05:07:42;;;;;;;1.75;1.10;;;19.80;58.10;;;;;;5048866;28;20084;-72
2022/09/03 05:10:15;;;;;;;1.23;1.10;;;19.80;58.10;;;;;;5049018;28;20057;-73
2022/09/03 05:12:41;;;;;;;1.25;1.10;;;19.80;58.10;;;;;;5048666;28;20061;-73
2022/09/03 05:15:09;;;;;;;1.15;1.00;;;19.80;58.10;;;;;;5050960;28;20103;-73
2022/09/03 05:17:37;;;;;;;1.63;1.13;;;19.80;58.10;;;;;;5047118;28;20116;-73
2022/09/03 05:20:04;;;;;;;1.10;1.00;;;19.80;58.10;;;;;;5049855;28;20405;-72
2022/09/03 05:22:31;;;;;;;1.27;1.08;;;19.80;58.10;;;;;;5049582;28;20135;-73
2022/09/03 05:24:57;;;;;;;1.02;0.93;;;19.80;60.40;;;;;;5050429;28;20132;-73
2022/09/03 05:27:25;;;;;;;2.20;1.27;;;19.80;58.10;;;;;;5050785;28;20048;-72
2022/09/03 05:29:52;;;;;;;1.55;1.20;;;19.80;58.10;;;;;;5050518;28;20059;-70
2022/09/03 05:32:19;;;;;;;1.20;0.98;;;19.80;58.10;;;;;;5054773;28;20502;-73
2022/09/03 05:34:46;;;;;;;1.20;1.10;;;19.80;58.10;;;;;;5053994;28;20132;-72
2022/09/03 05:37:12;;;;;;;1.73;1.33;;;19.80;58.10;;;;;;5053720;28;20055;-71
2022/09/03 05:39:39;;;;;;;1.30;1.10;;;19.80;58.10;;;;;;5053600;28;20494;-72
2022/09/03 05:42:06;;;;;;;1.17;1.00;;;19.80;58.20;;;;;;5052772;28;20080;-72
2022/09/03 05:44:35;;;;;;;1.20;1.10;;;19.80;58.20;;;;;;5053767;28;20080;-72
2022/09/03 05:47:02;;;;;;;1.98;1.17;;;19.80;58.40;;;;;;5053588;28;20547;-73
2022/09/03 05:49:29;;;;;;;2.40;1.20;;;19.80;58.50;;;;;;5053764;28;20120;-73
2022/09/03 05:51:56;;;;;;;1.50;1.20;;;19.80;58.60;;;;;;5053513;28;20049;-73
2022/09/03 05:54:23;;;;;;;1.70;1.13;;;19.80;61.40;;;;;;5053532;28;20486;-72
2022/09/03 05:56:49;;;;;;;1.73;1.30;;;19.80;58.80;;;;;;5053208;28;20191;-73
2022/09/03 05:59:16;;;;;;;1.88;1.20;;;19.80;58.70;;;;;;5053634;28;20079;-73
2022/09/03 06:01:45;;;;;;;1.20;1.10;;;19.80;58.80;;;;;;5053166;28;20143;-73
2022/09/03 06:04:13;;;;;;;2.63;1.50;;;19.80;58.90;;;;;;5053321;28;20056;-73
2022/09/03 06:06:40;;;;;;;1.38;1.27;;;19.80;58.90;;;;;;5054488;28;20132;-73
2022/09/03 06:09:09;;;;;;;1.50;1.30;;;19.80;59.00;;;;;;5053231;28;20052;-73
2022/09/03 06:11:36;;;;;;;1.27;1.10;;;19.80;59.00;;;;;;5052988;28;20063;-73
2022/09/03 06:14:04;;;;;;;4.53;1.10;;;19.80;59.00;;;;;;5053083;28;20122;-73
2022/09/03 06:16:31;;;;;;;3.05;1.30;;;19.80;59.10;;;;;;5053014;28;20045;-73
2022/09/03 06:19:00;;;;;;;2.28;1.23;;;19.80;59.10;;;;;;5053237;28;20063;-73
2022/09/03 06:21:27;;;;;;;1.30;1.20;;;19.80;59.10;;;;;;5052728;28;20057;-73
2022/09/03 06:23:55;;;;;;;1.85;1.17;;;19.80;59.10;;;;;;5052858;28;20056;-73
2022/09/03 06:26:23;;;;;;;1.30;1.13;;;19.80;59.80;;;;;;5052794;28;20056;-72
2022/09/03 06:28:49;;;;;;;1.30;1.13;;;19.80;59.10;;;;;;5052833;28;20465;-73
2022/09/03 06:31:17;;;;;;;2.03;1.20;;;19.80;59.10;;;;;;5052670;28;20509;-72
2022/09/03 06:33:44;;;;;;;1.75;1.10;;;19.80;59.20;;;;;;5052980;28;20486;-72
2022/09/03 06:36:13;;;;;;;1.38;1.15;;;19.80;59.20;;;;;;5053807;28;20119;-72
2022/09/03 06:38:40;;;;;;;1.75;1.20;;;19.80;59.20;;;;;;5053756;28;20051;-72
2022/09/03 06:41:09;;;;;;;1.35;1.10;;;19.80;59.20;;;;;;5050982;28;20063;-72
2022/09/03 06:43:36;;;;;;;2.03;1.38;;;20.50;61.40;;;;;;5052173;28;20052;-72
2022/09/03 06:46:04;;;;;;;1.20;1.10;;;19.80;59.30;;;;;;5052642;28;20059;-73
2022/09/03 06:48:32;;;;;;;1.77;1.23;;;19.70;59.20;;;;;;5052718;28;20132;-72
2022/09/03 06:51:00;;;;;;;1.40;1.10;;;19.80;59.30;;;;;;5053417;28;20041;-71
2022/09/03 06:53:29;;;;;;;2.75;1.23;;;19.80;59.30;;;;;;5052356;28;20056;-72
2022/09/03 06:55:56;;;;;;;1.70;1.27;;;19.80;59.30;;;;;;5051756;28;20490;-73
2022/09/03 06:58:23;;;;;;;1.80;1.20;;;19.80;59.30;;;;;;5052191;28;20051;-72
2022/09/03 07:00:51;;;;;;;1.45;1.05;;;19.90;59.30;;;;;;5053256;28;20144;-73
2022/09/03 07:03:18;;;;;;;1.92;1.10;;;19.90;59.20;;;;;;5052306;28;20083;-73
2022/09/03 07:05:45;;;;;;;1.35;1.25;;;19.90;59.20;;;;;;5053234;28;20052;-72
2022/09/03 07:08:12;;;;;;;1.40;1.10;;;20.00;59.20;;;;;;5052174;28;20060;-72
2022/09/03 07:10:40;;;;;;;1.30;1.17;;;20.00;59.10;;;;;;5051553;28;20401;-72
2022/09/03 07:13:07;;;;;;;1.70;1.27;;;20.10;59.00;;;;;;5051813;28;20076;-71
2022/09/03 07:15:34;;;;;;;1.58;1.38;;;20.10;59.00;;;;;;5053396;28;20484;-73
2022/09/03 07:18:00;;;;;;;2.92;1.17;;;20.10;58.90;;;;;;5053087;28;20059;-74
2022/09/03 07:20:27;;;;;;;2.90;1.20;;;20.10;58.80;;;;;;5052619;28;20053;-72
2022/09/03 07:22:55;;;;;;;1.85;1.35;;;20.10;58.80;;;;;;5053281;28;20417;-74
2022/09/03 07:25:22;;;;;;;2.40;1.50;;;20.10;58.80;;;;;;5051962;28;20057;-72
2022/09/03 07:27:51;;;;;;;2.80;1.40;;;20.10;58.80;;;;;;5051507;28;20045;-75
2022/09/03 07:30:18;;;;;;;2.05;1.30;;;20.00;58.80;;;;;;5051081;28;20059;-71
2022/09/03 07:32:45;;;;;;;3.17;1.45;;;20.10;58.90;;;;;;5051932;28;20132;-73
2022/09/03 07:35:12;;;;;;;2.33;1.40;;;20.10;59.00;;;;;;5051564;28;20082;-72
2022/09/03 07:37:41;;;;;;;5.30;1.63;;;20.10;59.00;;;;;;5051427;28;20144;-73
2022/09/03 07:40:09;;;;;;;5.05;1.50;;;20.10;59.00;;;;;;5051345;28;20060;-71
2022/09/03 07:42:37;;;;;;;4.53;1.42;;;20.00;59.00;;;;;;5052442;28;20128;-73
2022/09/03 07:45:08;;;;;;;4.35;1.70;;;21.20;61.90;;;;;;5051331;28;20057;-73
2022/09/03 07:47:35;;;;;;;3.60;1.50;;;20.00;59.00;;;;;;5051291;28;20110;-73
2022/09/03 07:50:03;;;;;;;4.15;1.58;;;20.00;59.00;;;;;;5051439;28;20084;-73
2022/09/03 07:52:30;;;;;;;4.53;1.60;;;20.00;59.10;;;;;;5052507;28;20053;-74
2022/09/03 07:54:57;;;;;;;3.88;1.70;;;20.00;59.10;;;;;;5051187;28;20053;-74
2022/09/03 07:57:23;;;;;;;2.47;1.40;;;20.00;59.00;;;;;;5050493;28;20124;-74
2022/09/03 07:59:50;;;;;;;9.15;1.50;;;20.00;59.00;;;;;;5050855;28;20721;-74
2022/09/03 08:02:18;;;;;;;2.88;1.35;;;20.00;58.80;;;;;;5050538;28;20057;-71
2022/09/03 08:04:45;;;;;;;2.30;1.30;;;19.90;58.50;;;;;;5050598;28;20063;-71
2022/09/03 08:07:12;;;;;;;4.95;1.40;;;20.00;58.70;;;;;;5051653;28;20045;-71
2022/09/03 08:09:39;;;;;;;2.17;1.30;;;20.00;58.80;;;;;;5050670;28;20118;-72
2022/09/03 08:12:06;;;;;;;1.88;1.38;;;19.90;58.80;;;;;;5051348;28;20506;-71
2022/09/03 08:14:33;;;;;;;2.03;1.23;;;19.90;58.90;;;;;;5050248;28;20059;-71
2022/09/03 08:16:59;;;;;;;3.13;1.48;;;20.00;59.00;;;;;;5050219;28;20443;-71
2022/09/03 08:19:27;;;;;;;3.33;1.30;;;20.00;59.10;;;;;;5051759;28;20064;-74
2022/09/03 08:21:54;;;;;;;2.45;1.38;;;19.90;59.10;;;;;;5050524;28;20136;-74
2022/09/03 08:24:23;;;;;;;2.33;1.27;;;20.00;59.20;;;;;;5051302;28;20139;-74
2022/09/03 08:26:50;;;;;;;2.35;1.27;;;20.00;59.20;;;;;;5049971;28;20049;-74
2022/09/03 08:29:16;;;;;;;4.82;1.30;;;20.00;59.30;;;;;;5050898;28;20420;-74
2022/09/03 08:31:43;;;;;;;3.85;1.35;;;20.00;59.30;;;;;;5051110;28;20132;-73
2022/09/03 08:34:11;;;;;;;2.20;1.25;;;20.00;59.20;;;;;;5050789;28;20060;-71
2022/09/03 08:36:41;;;;;;;2.67;1.42;;;20.10;59.20;;;;;;5051668;28;20084;-71
2022/09/03 08:39:08;;;;;;;2.63;1.40;;;20.10;59.20;;;;;;5050074;28;20044;-71
2022/09/03 08:41:42;;;;;;;5.35;1.23;;;20.10;59.20;;;;;;5047213;28;20055;-72
2022/09/03 08:44:19;;;;;;;4.57;1.50;;;20.10;59.20;;;;;;5046767;28;20045;-71
2022/09/03 08:46:50;;;;;;;7.32;1.85;;;20.30;59.40;;;;;;5051981;28;20438;-73
2022/09/03 08:49:18;;;;;;;7.82;2.22;;;20.10;59.30;;;;;;5050476;28;20049;-74
2022/09/03 08:51:48;;;;;;;7.78;2.03;;;20.10;59.30;;;;;;5050174;28;20135;-72
2022/09/03 08:54:14;;;;;;;11.70;2.58;;;20.10;59.40;;;;;;5050081;28;20458;-73
2022/09/03 08:56:41;;;;;;;6.35;2.40;;;20.10;59.40;;;;;;5049247;28;20080;-73
2022/09/03 08:59:08;;;;;;;6.80;2.10;;;20.10;59.30;;;;;;5051208;28;20718;-73
2022/09/03 09:01:40;;;;;;;9.23;2.30;;;20.10;59.40;;;;;;5050166;28;20057;-73
2022/09/03 09:04:11;;;;;;;10.95;3.00;;;20.10;59.40;;;;;;5050398;28;20137;-73
2022/09/03 09:06:41;;;;;;;7.75;2.63;;;20.10;59.40;;;;;;5054516;28;20067;-73
2022/09/03 09:09:17;;;;;;;10.05;2.25;;;20.10;59.50;;;;;;5054283;28;20045;-73
2022/09/03 09:11:49;;;;;;;4.55;1.73;;;20.10;59.60;;;;;;5054474;28;20059;-72
2022/09/03 09:14:19;;;;;;;8.95;2.00;;;20.10;59.70;;;;;;5053301;28;20673;-72
2022/09/03 09:16:49;;;;;;;5.72;2.20;;;20.10;59.80;;;;;;5052637;28;20454;-72
2022/09/03 09:19:27;;;;;;;5.63;2.10;;;20.20;59.80;;;;;;5053839;28;20135;-72
2022/09/03 09:21:55;;;;;;;6.07;1.90;;;20.20;59.80;;;;;;5052864;28;20057;-72
2022/09/03 09:24:25;;;;;;;6.90;2.05;;;20.20;61.90;;;;;;5052783;28;20049;-73
2022/09/03 09:26:54;;;;;;;7.18;2.08;;;20.20;59.90;;;;;;5054093;28;20045;-72
2022/09/03 09:29:20;;;;;;;7.25;1.80;;;20.20;62.00;;;;;;5052831;28;20049;-72
2022/09/03 09:31:48;;;;;;;6.13;2.20;;;20.20;59.70;;;;;;5053971;28;20053;-72
2022/09/03 09:34:14;;;;;;;4.07;1.73;;;19.30;61.60;;;;;;5055211;28;20501;-72
2022/09/03 09:36:43;;;;;;;7.47;2.10;;;20.20;59.60;;;;;;5053654;28;20057;-73
2022/09/03 09:39:10;;;;;;;5.80;2.08;;;20.30;59.60;;;;;;5053805;28;20132;-72
2022/09/03 09:41:38;;;;;;;8.98;2.10;;;20.30;59.50;;;;;;5053485;28;20045;-72
2022/09/03 09:44:05;;;;;;;5.95;2.22;;;21.00;61.90;;;;;;5053203;28;20413;-72
2022/09/03 09:46:34;;;;;;;5.97;2.10;;;20.40;59.50;;;;;;5053900;28;20048;-72
2022/09/03 09:49:01;;;;;;;8.38;2.00;;;20.30;59.30;;;;;;5053462;28;20047;-72
2022/09/03 09:51:29;;;;;;;7.25;2.35;;;20.40;59.30;;;;;;5053543;28;20135;-72
2022/09/03 09:54:03;;;;;;;5.15;1.80;;;20.40;59.30;;;;;;5053785;28;20092;-72
2022/09/03 09:56:30;;;;;;;4.10;1.93;;;20.50;62.10;;;;;;5053630;28;20092;-72
2022/09/03 09:59:05;;;;;;;6.00;2.22;;;20.50;59.20;;;;;;5051965;28;20123;-72
2022/09/03 10:01:32;;;;;;;5.50;1.92;;;20.50;59.20;;;;;;5053201;28;20071;-71
2022/09/03 10:03:59;;;;;;;5.90;1.70;;;20.60;59.20;;;;;;5053610;28;20085;-72
2022/09/03 10:09:12;;;;;;;;;;;20.60;59.10;;;;;;5055065;28;20487;-72
2022/09/03 10:11:40;;;;;;;4.93;1.75;;;20.60;59.20;;;;;;5052987;28;19925;-72
2022/09/03 10:14:13;;;;;;;6.90;1.95;;;20.60;59.10;;;;;;5054000;28;20076;-72
2022/09/03 10:16:41;;;;;;;5.97;2.30;;;20.70;58.90;;;;;;5036218;28;20057;-72
2022/09/03 10:19:10;;;;;;;3.75;1.70;;;20.70;58.90;;;;;;5053075;28;20500;-72
2022/09/03 10:21:41;;;;;;;3.35;2.03;;;20.70;58.80;;;;;;5053077;28;20053;-72
2022/09/03 10:24:29;;;;;;;5.65;1.70;;;20.90;61.70;;;;;;5053307;28;20482;-71
2022/09/03 10:26:57;;;;;;;2.33;1.45;;;20.80;58.70;;;;;;5054162;28;20080;-72
2022/09/03 10:29:29;;;;;;;3.08;1.52;;;20.80;58.60;;;;;;5052336;28;20049;-71
2022/09/03 10:32:02;;;;;;;5.38;1.80;;;20.90;58.60;;;;;;5052985;28;20555;-72
2022/09/03 10:34:35;;;;;;;3.95;1.77;;;20.90;58.50;;;;;;5052837;28;20196;-72
2022/09/03 10:37:16;;;;;;;3.70;1.75;;;20.90;58.40;;;;;;5053123;28;20057;-72
2022/09/03 10:39:53;;;;;;;3.50;1.67;;;21.00;58.50;;;;;;5052630;28;20165;-72
2022/09/03 10:42:32;;;;;;;4.00;1.52;;;21.00;58.40;;;;;;5053788;28;20053;-71
2022/09/03 10:45:05;;;;;;;2.15;1.30;;;21.10;58.40;;;;;;5052045;28;20056;-71
2022/09/03 10:47:40;;;;;;;3.13;1.58;;;21.10;58.30;;;;;;5052923;28;20057;-72
2022/09/03 10:50:09;;;;;;;;;;;21.10;58.20;;;;;;5054092;28;20049;-71
2022/09/03 10:52:40;;;;;;;2.30;1.40;;;21.10;58.40;;;;;;5036004;28;19931;-71
2022/09/03 10:55:15;;;;;;;3.13;1.50;;;22.40;61.10;;;;;;5052598;28;20501;-73
2022/09/03 10:57:46;;;;;;;2.55;1.48;;;21.10;58.00;;;;;;5052418;28;20060;-72
2022/09/03 11:00:15;;;;;;;2.83;1.33;;;21.20;58.00;;;;;;5051443;28;20063;-72
2022/09/03 11:02:59;;;;;;;3.58;1.58;;;21.20;57.90;;;;;;5051993;28;20135;-72
2022/09/03 11:05:29;;;;;;;4.07;1.50;;;21.30;57.90;;;;;;5052190;28;20425;-74
2022/09/03 11:07:59;;;;;;;2.65;1.20;;;21.30;57.80;;;;;;5052034;28;20064;-73
2022/09/03 11:10:27;;;;;;;2.47;1.48;;;21.30;57.70;;;;;;5035634;28;20063;-73
2022/09/03 11:12:58;;;;;;;3.20;1.35;;;21.30;57.70;;;;;;5052415;28;20163;-72
2022/09/03 11:15:27;;;;;;;3.88;1.60;;;21.40;57.70;;;;;;5051342;28;20056;-71
2022/09/03 11:17:56;;;;;;;3.40;1.40;;;21.40;57.70;;;;;;5052462;28;20045;-72
2022/09/03 11:20:24;;;;;;;3.20;1.83;;;21.40;57.60;;;;;;5051770;28;20103;-71
2022/09/03 11:22:53;;;;;;;1.70;1.50;;;21.40;57.60;;;;;;5052154;28;20136;-74
2022/09/03 11:25:22;;;;;;;2.50;1.27;;;21.40;57.50;;;;;;5052052;28;20508;-72
2022/09/03 11:27:55;;;;;;;1.77;1.00;;;21.40;57.50;;;;;;5051712;28;20143;-72
2022/09/03 11:30:29;;;;;;;2.63;1.45;;;21.50;57.50;;;;;;5051857;28;20080;-72
2022/09/03 11:32:56;;;;;;;1.77;1.20;;;21.50;57.40;;;;;;5051315;28;20493;-72
2022/09/03 11:35:27;;;;;;;3.38;1.40;;;21.50;57.40;;;;;;5031722;28;20053;-72
2022/09/03 11:37:58;;;;;;;2.28;1.30;;;21.30;59.80;;;;;;5031617;28;20053;-73
2022/09/03 11:40:31;;;;;;;1.50;1.10;;;21.50;57.30;;;;;;5031699;28;20103;-72
2022/09/03 11:43:06;;;;;;;2.60;1.20;;;21.50;57.30;;;;;;5031433;28;20053;-74
2022/09/03 11:45:39;;;;;;;1.98;1.27;;;21.60;57.30;;;;;;5033595;28;20077;-73
2022/09/03 11:48:19;;;;;;;2.65;1.23;;;21.60;57.30;;;;;;5051686;28;20083;-71
2022/09/03 11:50:53;;;;;;;2.83;1.25;;;21.60;59.60;;;;;;5051281;28;20555;-72
2022/09/03 11:53:26;;;;;;;1.63;1.10;;;21.60;57.20;;;;;;5051285;28;20053;-72
2022/09/03 11:55:54;;;;;;;2.42;1.40;;;21.60;57.20;;;;;;5051538;28;20494;-72
2022/09/03 11:58:24;;;;;;;2.08;1.33;;;21.60;57.20;;;;;;5052405;28;20056;-73
2022/09/03 12:00:53;;;;;;;2.40;1.25;;;21.60;57.70;;;;;;5050748;28;20049;-74
2022/09/03 12:03:25;;;;;;;1.92;1.10;;;21.60;57.10;;;;;;5050800;28;20072;-74
2022/09/03 12:06:02;;;;;;;2.63;1.40;;;21.60;57.10;;;;;;5051341;28;20063;-74
2022/09/03 12:08:52;;;;;;;1.50;1.25;;;21.70;57.10;;;;;;5051264;28;20052;-73
2022/09/03 12:11:29;;;;;;;1.70;1.20;;;21.70;57.20;;;;;;5050896;28;20502;-73
2022/09/03 12:14:00;;;;;;;2.45;1.13;;;21.70;57.10;;;;;;5051173;28;20414;-72
2022/09/03 12:16:49;;;;;;;2.70;1.20;;;21.70;57.10;;;;;;5050962;28;20437;-72
2022/09/03 12:19:21;;;;;;;2.10;1.20;;;21.70;57.10;;;;;;5050869;28;20126;-72
2022/09/03 12:21:51;;;;;;;2.47;1.33;;;21.70;57.10;;;;;;5050643;28;20132;-73
2022/09/03 12:24:19;;;;;;;2.47;1.30;;;21.70;57.10;;;;;;5050903;28;20056;-72
2022/09/03 12:26:45;;;;;;;2.47;1.02;;;21.70;57.10;;;;;;5051047;28;20505;-73
2022/09/03 12:29:22;;;;;;;1.75;1.10;;;21.70;57.10;;;;;;5051809;28;20049;-72
2022/09/03 12:31:50;;;;;;;1.92;1.20;;;21.70;57.00;;;;;;5030957;28;20063;-72
2022/09/03 12:34:17;;;;;;;1.63;1.20;;;21.60;58.80;;;;;;5030835;28;20136;-72
2022/09/03 12:36:45;;;;;;;1.60;1.27;;;21.70;57.00;;;;;;5030814;28;20149;-72
2022/09/03 12:39:13;;;;;;;1.52;1.20;;;21.70;57.00;;;;;;5030654;28;20053;-72
2022/09/03 12:41:46;;;;;;;1.30;1.10;;;21.70;57.00;;;;;;5030564;28;20057;-71
2022/09/03 12:44:13;;;;;;;1.58;1.10;;;21.70;57.00;;;;;;5041511;28;20048;-72
2022/09/03 12:46:40;;;;;;;1.73;1.20;;;21.70;57.00;;;;;;5050833;28;20067;-72
2022/09/03 12:49:08;;;;;;;1.50;1.00;;;21.70;57.00;;;;;;5050494;28;20053;-72
2022/09/03 12:51:38;;;;;;;1.25;1.15;;;21.70;57.00;;;;;;5049793;28;20135;-72
2022/09/03 12:54:06;;;;;;;1.40;1.10;;;21.70;57.00;;;;;;5033847;28;20072;-71
2022/09/03 12:56:33;;;;;;;1.45;1.10;;;21.70;57.00;;;;;;5050439;28;20052;-72
2022/09/03 12:59:03;;;;;;;1.48;0.88;;;21.70;56.90;;;;;;5051562;28;20563;-72
2022/09/03 13:01:31;;;;;;;1.55;1.10;;;21.70;56.90;;;;;;5064879;28;20144;-72